KPVD/PVD METAR and TAF weather

Enter ICAO airport designator
Station Type Date Time Source
KPVD METAR 2019/04/18 13:51 UTC NOAA

KPVD 181351Z 15009KT 10SM OVC055 08/04 A3025 RMK AO2 SLP244 T00830039


Station Type Date Time Source
KPVD Decoded METAR 2019/04/18 13:51 UTC NOAA

PROVIDENCE GREEN STATE AIRPORT , RI, United States (KPVD) 41-44N 071-26W 16M
Apr 18, 2019 - 09:51 AM EDT / 2019.04.18 1351 UTC
Wind: from the SSE (150 degrees) at 10 MPH (9 KT):0
Visibility: 10 mile(s):0
Sky conditions: overcast
Temperature: 46.9 F (8.3 C)
Dew Point: 39.0 F (3.9 C)
Relative Humidity: 73%
Pressure (altimeter): 30.25 in. Hg (1024 hPa)
ob: KPVD 181351Z 15009KT 10SM OVC055 08/04 A3025 RMK AO2 SLP244 T00830039
cycle: 14

Station Type Date Time Source
KPVD TAF 2019/04/18 12:24 UTC NOAA

TAF KPVD 181123Z 1812/1912 18005KT P6SM BKN070
FM181400 16011G18KT P6SM OVC060
FM181900 16014G24KT P6SM VCSH OVC020
FM182100 16013G24KT 3SM BR VCSH OVC008
FM190200 19013KT 2SM -DZ BR VCSH OVC003
FM190500 20013KT P6SM VCSH OVC003 WS020/22040KT
FM190800 21014KT 3SM BR VCSH OVC010 WS020/23045KT

Example: see airport list